Time;durP1;ratioP1;P1;durP2;ratioP2;P2;SDS_P1;SDS_P2;PMS_P1;PMS_P2;Temp;Humidity;BMP_temperature;BMP_pressure;BME280_temperature;BME280_humidity;BME280_pressure;Samples;Min_cycle;Max_cycle;Signal;HPM_P1;HPM_P2
2022/01/23 00:00:01;;;;;;;17.23;8.87;;;;;;;;;;4448898;32;20259;-56
2022/01/23 00:02:28;;;;;;;13.10;7.87;;;;;;;;;;4449155;32;20279;-55
2022/01/23 00:04:54;;;;;;;21.33;10.93;;;;;;;;;;4448929;32;20576;-55
2022/01/23 00:07:20;;;;;;;35.73;13.77;;;;;;;;;;4442386;32;20590;-56
2022/01/23 00:09:46;;;;;;;24.73;12.17;;;;;;;;;;4433556;32;20294;-55
2022/01/23 00:12:17;;;;;;;38.40;19.27;;;;;;;;;;4433473;32;20288;-55
2022/01/23 00:17:33;;;;;;;31.80;14.57;;;;;;;;;;4433074;32;20274;-55
2022/01/23 00:20:01;;;;;;;46.10;22.10;;;;;;;;;;4419175;32;20236;-55
2022/01/23 00:22:42;;;;;;;6.37;5.53;;;;;;;;;;4419508;32;20325;-55
2022/01/23 00:30:40;;;;;;;16.00;9.13;;;;;;;;;;4434193;32;20231;-55
2022/01/23 00:33:08;;;;;;;9.87;5.73;;;;;;;;;;4434683;32;20347;-55
2022/01/23 00:35:35;;;;;;;13.20;7.00;;;;;;;;;;4448162;32;20263;-55
2022/01/23 00:38:03;;;;;;;13.53;6.70;;;;;;;;;;4448790;32;20425;-55
2022/01/23 00:40:30;;;;;;;12.70;8.43;;;;;;;;;;4448492;32;20263;-55
2022/01/23 00:42:58;;;;;;;14.10;7.10;;;;;;;;;;4448437;32;20221;-55
2022/01/23 00:47:54;;;;;;;11.20;7.53;;;;;;;;;;4448393;32;20217;-57
2022/01/23 00:50:20;;;;;;;21.80;7.67;;;;;;;;;;4444234;32;20444;-56
2022/01/23 00:52:46;;;;;;;9.37;6.43;;;;;;;;;;4393534;32;20669;-54
2022/01/23 00:55:11;;;;;;;8.60;6.30;;;;;;;;;;4418823;32;20295;-54
2022/01/23 00:57:37;;;;;;;14.80;8.47;;;;;;;;;;4418348;32;20641;-54
2022/01/23 01:00:07;;;;;;;10.27;6.03;;;;;;;;;;4432649;32;20709;-55
2022/01/23 01:02:32;;;;;;;8.87;5.90;;;;;;;;;;4432495;32;20384;-54
2022/01/23 01:04:58;;;;;;;11.97;6.70;;;;;;;;;;4441846;32;20288;-57
2022/01/23 01:07:23;;;;;;;9.40;5.77;;;;;;;;;;4441311;32;20700;-55
2022/01/23 01:09:52;;;;;;;8.40;5.93;;;;;;;;;;4432464;32;20302;-56
2022/01/23 01:12:25;;;;;;;19.87;10.40;;;;;;;;;;4432295;32;20612;-55
2022/01/23 01:17:31;;;;;;;34.67;17.33;;;;;;;;;;4418476;32;20280;-55
2022/01/23 01:31:04;;;;;;;7.60;4.60;;;;;;;;;;4435129;32;20243;-55
2022/01/23 01:36:16;;;;;;;7.27;4.97;;;;;;;;;;4434387;32;20780;-55
2022/01/23 01:38:42;;;;;;;5.80;3.90;;;;;;;;;;4433339;32;20378;-55
2022/01/23 01:41:08;;;;;;;7.27;4.17;;;;;;;;;;4447706;32;20713;-56
2022/01/23 01:43:33;;;;;;;7.23;3.97;;;;;;;;;;4447379;32;20557;-55
2022/01/23 01:45:58;;;;;;;3.87;3.30;;;;;;;;;;4447203;32;20310;-56
2022/01/23 01:48:25;;;;;;;8.07;4.77;;;;;;;;;;4447332;32;20264;-55
2022/01/23 01:50:54;;;;;;;4.47;3.53;;;;;;;;;;4442626;32;20251;-55
2022/01/23 01:53:20;;;;;;;4.13;3.60;;;;;;;;;;4447166;32;20216;-55
2022/01/23 01:55:54;;;;;;;6.50;4.67;;;;;;;;;;4437281;32;20304;-54
2022/01/23 02:01:00;;;;;;;8.20;5.73;;;;;;;;;;4431782;32;20330;-56
2022/01/23 02:08:45;;;;;;;7.57;5.63;;;;;;;;;;4446766;32;20250;-55
2022/01/23 02:11:20;;;;;;;9.07;5.73;;;;;;;;;;4433401;32;20235;-58
2022/01/23 02:16:40;;;;;;;7.63;5.40;;;;;;;;;;4431947;32;20326;-55
2022/01/23 02:54:52;;;;;;;8.47;5.77;;;;;;;;;;4434848;32;20268;-57
2022/01/23 02:57:32;;;;;;;6.80;4.93;;;;;;;;;;4420492;32;20882;-55
2022/01/23 02:59:58;;;;;;;5.30;4.23;;;;;;;;;;4420561;32;20633;-55
2022/01/23 03:02:35;;;;;;;5.80;4.53;;;;;;;;;;4434727;32;20391;-55
2022/01/23 03:05:02;;;;;;;12.97;5.03;;;;;;;;;;4444322;32;20204;-56
2022/01/23 03:10:08;;;;;;;7.67;4.23;;;;;;;;;;4434449;32;20691;-56
2022/01/23 03:26:48;;;;;;;23.67;10.80;;;;;;;;;;4449347;32;20350;-55
2022/01/23 03:29:17;;;;;;;25.10;10.27;;;;;;;;;;4449093;32;20299;-55
2022/01/23 03:34:19;;;;;;;21.93;11.00;;;;;;;;;;4449137;32;20567;-55
2022/01/23 03:36:45;;;;;;;19.70;9.97;;;;;;;;;;4449417;32;20228;-54
2022/01/23 03:39:11;;;;;;;27.37;12.00;;;;;;;;;;4448813;32;20283;-54
2022/01/23 03:41:40;;;;;;;18.43;8.03;;;;;;;;;;4434687;32;20311;-57
2022/01/23 03:44:09;;;;;;;11.33;6.57;;;;;;;;;;4448863;32;20236;-56
2022/01/23 03:49:34;;;;;;;8.23;5.97;;;;;;;;;;4448887;32;20232;-55
2022/01/23 03:52:04;;;;;;;12.80;6.67;;;;;;;;;;4449078;32;20251;-54
2022/01/23 03:54:30;;;;;;;18.23;7.27;;;;;;;;;;4448932;32;20231;-55
2022/01/23 03:56:58;;;;;;;13.17;7.60;;;;;;;;;;4448708;32;20588;-56
2022/01/23 03:59:24;;;;;;;14.13;7.77;;;;;;;;;;4435072;32;20317;-54
2022/01/23 04:01:50;;;;;;;16.40;7.63;;;;;;;;;;4448968;32;20301;-55
2022/01/23 04:05:00;;;;;;;13.17;7.70;;;;;;;;;;4448501;32;20272;-54
2022/01/23 04:07:01;;;;;;;16.67;8.07;;;;;;;;;;4433794;32;20264;-57
2022/01/23 04:09:26;;;;;;;16.97;8.37;;;;;;;;;;4432825;32;20292;-56
2022/01/23 04:11:52;;;;;;;19.50;9.50;;;;;;;;;;4419314;32;20332;-56
2022/01/23 04:14:20;;;;;;;24.57;10.43;;;;;;;;;;4419016;32;20343;-55
2022/01/23 04:47:15;;;;;;;39.97;22.13;;;;;;;;;;4432702;32;20503;-55
2022/01/23 04:59:53;;;;;;;34.20;14.63;;;;;;;;;;4448022;32;20250;-55
2022/01/23 05:05:04;;;;;;;32.87;16.73;;;;;;;;;;4448003;32;20284;-55
2022/01/23 05:07:30;;;;;;;33.17;15.60;;;;;;;;;;4413835;32;20260;-56
2022/01/23 05:09:55;;;;;;;32.90;17.10;;;;;;;;;;4432396;32;20305;-55
2022/01/23 05:12:28;;;;;;;30.50;13.97;;;;;;;;;;4432179;32;20317;-57
2022/01/23 05:14:54;;;;;;;20.53;11.87;;;;;;;;;;4432503;32;20220;-55
2022/01/23 05:17:20;;;;;;;26.57;14.17;;;;;;;;;;4418341;32;20347;-55
2022/01/23 05:19:45;;;;;;;26.37;13.33;;;;;;;;;;4432401;32;20363;-55
2022/01/23 05:22:28;;;;;;;23.97;13.10;;;;;;;;;;4447534;32;20299;-54
2022/01/23 05:24:58;;;;;;;30.63;13.47;;;;;;;;;;4447620;32;20216;-55
2022/01/23 05:27:26;;;;;;;23.23;12.47;;;;;;;;;;4447693;32;20323;-54
2022/01/23 05:29:53;;;;;;;23.77;11.80;;;;;;;;;;4433396;32;20331;-55
2022/01/23 05:32:20;;;;;;;17.30;8.73;;;;;;;;;;4446983;32;20245;-55
2022/01/23 05:34:47;;;;;;;16.33;6.43;;;;;;;;;;4447144;32;20317;-55
2022/01/23 05:37:12;;;;;;;14.63;8.03;;;;;;;;;;4447303;32;20318;-55
2022/01/23 05:39:38;;;;;;;11.87;8.43;;;;;;;;;;4447333;32;20339;-56
2022/01/23 05:42:08;;;;;;;11.60;7.87;;;;;;;;;;4447363;32;20267;-55
2022/01/23 05:44:36;;;;;;;20.77;11.40;;;;;;;;;;4447342;32;20288;-54
2022/01/23 05:47:03;;;;;;;16.33;10.23;;;;;;;;;;4447345;32;20322;-54
2022/01/23 05:49:29;;;;;;;18.30;9.50;;;;;;;;;;4433156;32;20456;-54
2022/01/23 05:51:55;;;;;;;20.93;10.47;;;;;;;;;;4447384;32;20322;-56
2022/01/23 05:54:20;;;;;;;39.60;16.33;;;;;;;;;;4446826;32;20250;-55
2022/01/23 05:56:47;;;;;;;41.17;17.03;;;;;;;;;;4446604;32;20355;-54
2022/01/23 05:59:13;;;;;;;34.17;14.73;;;;;;;;;;4446973;32;20359;-54
2022/01/23 06:01:39;;;;;;;26.80;14.43;;;;;;;;;;4445570;32;20314;-55
2022/01/23 06:04:04;;;;;;;33.20;15.73;;;;;;;;;;4447131;32;21008;-56
2022/01/23 06:06:30;;;;;;;33.53;15.83;;;;;;;;;;4432127;32;20349;-55
2022/01/23 06:08:55;;;;;;;34.10;16.80;;;;;;;;;;4431010;32;20244;-54
2022/01/23 06:11:21;;;;;;;24.40;14.30;;;;;;;;;;4430852;32;20382;-53
2022/01/23 06:13:46;;;;;;;21.87;11.57;;;;;;;;;;4430719;32;20268;-55
2022/01/23 06:16:12;;;;;;;24.07;12.67;;;;;;;;;;4432120;32;20331;-55
2022/01/23 06:18:40;;;;;;;26.23;13.13;;;;;;;;;;4424190;32;20325;-55
2022/01/23 06:21:07;;;;;;;26.43;14.97;;;;;;;;;;4433004;32;20264;-55
2022/01/23 06:23:32;;;;;;;25.37;12.83;;;;;;;;;;4447264;32;20338;-56
2022/01/23 06:25:58;;;;;;;27.70;14.50;;;;;;;;;;4448027;32;20584;-54
2022/01/23 06:29:02;;;;;;;27.67;15.20;;;;;;;;;;4446218;32;20259;-55
2022/01/23 06:31:27;;;;;;;26.93;16.67;;;;;;;;;;4446055;32;20282;-54
2022/01/23 06:33:53;;;;;;;28.00;15.00;;;;;;;;;;4446100;32;20217;-55
2022/01/23 06:36:19;;;;;;;29.47;15.43;;;;;;;;;;4447237;32;20625;-55
2022/01/23 06:38:44;;;;;;;25.47;16.50;;;;;;;;;;4447025;32;20291;-55
2022/01/23 06:41:10;;;;;;;26.43;14.20;;;;;;;;;;4435169;32;20308;-56
2022/01/23 06:43:35;;;;;;;37.77;16.90;;;;;;;;;;4404873;32;20261;-54
2022/01/23 06:46:01;;;;;;;46.30;23.30;;;;;;;;;;4417364;32;20759;-54
2022/01/23 06:48:27;;;;;;;38.93;21.67;;;;;;;;;;4431188;32;20348;-54
2022/01/23 06:50:52;;;;;;;40.00;19.63;;;;;;;;;;4431662;32;20330;-55
2022/01/23 06:53:18;;;;;;;43.83;20.17;;;;;;;;;;4439231;32;20673;-55
2022/01/23 06:55:43;;;;;;;37.13;20.33;;;;;;;;;;4431612;32;20295;-54
2022/01/23 06:58:09;;;;;;;36.63;17.80;;;;;;;;;;4431146;32;20653;-55
2022/01/23 07:00:35;;;;;;;153.27;72.90;;;;;;;;;;4431350;32;20772;-56
2022/01/23 07:03:01;;;;;;;167.77;87.37;;;;;;;;;;4417341;32;20335;-56
2022/01/23 07:05:26;;;;;;;157.10;77.23;;;;;;;;;;4429135;32;20319;-54
2022/01/23 07:07:52;;;;;;;144.10;72.70;;;;;;;;;;4425253;32;20333;-54
2022/01/23 07:10:19;;;;;;;165.83;80.50;;;;;;;;;;4419882;32;20295;-54
2022/01/23 07:12:44;;;;;;;143.13;71.97;;;;;;;;;;4433988;32;20304;-55
2022/01/23 07:15:10;;;;;;;168.17;76.60;;;;;;;;;;4434393;32;20657;-55
2022/01/23 07:17:40;;;;;;;114.60;61.77;;;;;;;;;;4434432;32;20228;-55
2022/01/23 07:20:06;;;;;;;132.10;62.60;;;;;;;;;;4449659;32;20205;-54
2022/01/23 07:22:31;;;;;;;134.70;66.77;;;;;;;;;;4449313;32;20591;-57
2022/01/23 07:25:01;;;;;;;134.60;71.10;;;;;;;;;;4435040;32;20295;-54
2022/01/23 07:27:28;;;;;;;163.20;80.13;;;;;;;;;;4434337;32;20272;-55
2022/01/23 07:29:54;;;;;;;154.07;80.27;;;;;;;;;;4435207;32;20704;-55
2022/01/23 07:32:19;;;;;;;181.90;91.93;;;;;;;;;;4449324;32;20368;-54
2022/01/23 07:34:45;;;;;;;228.67;109.40;;;;;;;;;;4435660;32;20333;-55
2022/01/23 07:37:12;;;;;;;199.23;94.00;;;;;;;;;;4435465;32;20295;-55
2022/01/23 07:39:39;;;;;;;192.93;96.07;;;;;;;;;;4435052;32;20780;-54
2022/01/23 07:42:05;;;;;;;149.33;78.30;;;;;;;;;;4448370;32;20239;-55
2022/01/23 07:44:31;;;;;;;167.60;90.90;;;;;;;;;;4448820;32;20660;-55
2022/01/23 07:46:56;;;;;;;148.80;81.00;;;;;;;;;;4448933;32;20362;-55
2022/01/23 07:49:22;;;;;;;103.23;59.17;;;;;;;;;;4434462;32;20777;-54
2022/01/23 07:51:48;;;;;;;68.73;31.37;;;;;;;;;;4434977;32;20465;-56
2022/01/23 07:54:13;;;;;;;39.20;21.17;;;;;;;;;;4448928;32;20260;-55
2022/01/23 07:56:42;;;;;;;27.77;15.47;;;;;;;;;;4449633;32;20291;-56
2022/01/23 07:59:09;;;;;;;17.30;10.60;;;;;;;;;;4449300;32;20349;-56
2022/01/23 08:01:38;;;;;;;14.57;8.57;;;;;;;;;;4449310;32;20657;-56
2022/01/23 08:04:07;;;;;;;15.07;8.00;;;;;;;;;;4435283;32;20256;-56
2022/01/23 08:06:40;;;;;;;13.97;8.00;;;;;;;;;;4448630;32;20278;-54
2022/01/23 08:09:07;;;;;;;6.30;4.90;;;;;;;;;;4434373;32;20288;-54
2022/01/23 08:11:32;;;;;;;8.27;5.20;;;;;;;;;;4434097;32;20921;-55
2022/01/23 08:13:58;;;;;;;7.70;5.73;;;;;;;;;;4434101;32;20539;-55
2022/01/23 08:16:23;;;;;;;4.47;3.73;;;;;;;;;;4434502;32;20309;-56
2022/01/23 08:18:49;;;;;;;5.40;4.10;;;;;;;;;;4441802;32;20374;-56
2022/01/23 08:21:14;;;;;;;13.67;4.77;;;;;;;;;;4449384;32;20291;-54
2022/01/23 08:23:40;;;;;;;8.13;5.23;;;;;;;;;;4435227;32;20264;-56
2022/01/23 08:26:06;;;;;;;9.47;5.50;;;;;;;;;;4449484;32;20338;-56
2022/01/23 08:28:32;;;;;;;10.93;6.07;;;;;;;;;;4449239;32;20229;-57
2022/01/23 08:30:57;;;;;;;10.10;4.97;;;;;;;;;;4449400;32;20332;-56
2022/01/23 08:33:24;;;;;;;9.40;5.90;;;;;;;;;;4435582;32;20264;-55
2022/01/23 08:35:50;;;;;;;14.00;7.77;;;;;;;;;;4435372;32;20256;-55
2022/01/23 08:38:16;;;;;;;9.60;6.47;;;;;;;;;;4445470;32;20684;-54
2022/01/23 08:43:07;;;;;;;6.47;5.17;;;;;;;;;;4433349;32;20415;-56
2022/01/23 08:45:33;;;;;;;9.17;4.30;;;;;;;;;;4433937;32;20607;-56
2022/01/23 08:47:59;;;;;;;6.90;4.80;;;;;;;;;;4433512;32;20216;-55
2022/01/23 08:50:25;;;;;;;8.67;5.03;;;;;;;;;;4434065;32;20209;-55
2022/01/23 08:52:51;;;;;;;20.03;7.93;;;;;;;;;;4439697;32;20252;-55
2022/01/23 08:55:18;;;;;;;20.00;10.80;;;;;;;;;;4433025;32;20945;-55
2022/01/23 08:57:44;;;;;;;20.47;12.27;;;;;;;;;;4433387;32;20232;-55
2022/01/23 09:00:10;;;;;;;49.33;23.27;;;;;;;;;;4419784;32;20337;-57
2022/01/23 09:02:35;;;;;;;50.70;22.87;;;;;;;;;;4433833;32;20260;-55
2022/01/23 09:05:01;;;;;;;24.37;12.10;;;;;;;;;;4442783;32;20295;-55
2022/01/23 09:07:27;;;;;;;43.63;19.27;;;;;;;;;;4427719;32;20333;-55
2022/01/23 09:10:00;;;;;;;42.23;20.13;;;;;;;;;;4419435;32;20744;-56
2022/01/23 09:15:04;;;;;;;27.83;15.33;;;;;;;;;;4448734;32;20201;-55
2022/01/23 09:17:29;;;;;;;15.13;8.40;;;;;;;;;;4434151;32;20236;-55
2022/01/23 09:19:55;;;;;;;18.80;10.00;;;;;;;;;;4433226;32;20260;-55
2022/01/23 09:22:21;;;;;;;32.60;19.30;;;;;;;;;;4433165;32;20627;-55
2022/01/23 09:24:46;;;;;;;15.70;9.93;;;;;;;;;;4433525;32;20647;-54
2022/01/23 09:27:19;;;;;;;19.17;9.90;;;;;;;;;;4419533;32;20712;-55
2022/01/23 09:29:48;;;;;;;16.73;9.87;;;;;;;;;;4418979;32;20337;-55
2022/01/23 09:32:16;;;;;;;14.23;8.63;;;;;;;;;;4433056;32;20296;-55
2022/01/23 09:34:43;;;;;;;7.00;5.07;;;;;;;;;;4418538;32;20311;-54
2022/01/23 09:37:14;;;;;;;8.47;5.93;;;;;;;;;;4432716;32;20201;-54
2022/01/23 09:39:45;;;;;;;7.43;5.43;;;;;;;;;;4432737;32;20189;-55
2022/01/23 09:42:17;;;;;;;6.47;4.77;;;;;;;;;;4431845;32;20253;-55
2022/01/23 09:44:51;;;;;;;8.33;4.10;;;;;;;;;;4432548;32;20367;-56
2022/01/23 09:47:19;;;;;;;9.77;5.07;;;;;;;;;;4439674;32;20201;-55
2022/01/23 09:49:46;;;;;;;7.73;4.90;;;;;;;;;;4433991;32;20307;-55
2022/01/23 09:52:13;;;;;;;8.80;4.03;;;;;;;;;;4448135;32;20201;-56
2022/01/23 09:54:40;;;;;;;6.90;5.03;;;;;;;;;;4440436;32;20204;-56
2022/01/23 09:57:08;;;;;;;12.07;5.70;;;;;;;;;;4432383;32;20208;-54
2022/01/23 09:59:34;;;;;;;8.57;5.23;;;;;;;;;;4432875;32;20258;-55
2022/01/23 10:02:01;;;;;;;9.20;4.17;;;;;;;;;;4432307;32;20295;-57
2022/01/23 10:04:27;;;;;;;7.80;5.07;;;;;;;;;;4432316;32;20598;-54
2022/01/23 10:06:53;;;;;;;7.97;5.00;;;;;;;;;;4435486;32;20715;-56
2022/01/23 10:09:25;;;;;;;9.23;5.70;;;;;;;;;;4447736;32;20576;-53
2022/01/23 10:11:51;;;;;;;14.93;5.53;;;;;;;;;;4447992;32;20208;-53
2022/01/23 10:14:18;;;;;;;14.23;7.93;;;;;;;;;;4420600;32;20393;-53
2022/01/23 10:16:45;;;;;;;16.47;7.60;;;;;;;;;;4432462;32;20335;-53
2022/01/23 10:19:10;;;;;;;8.27;5.90;;;;;;;;;;4417555;32;20519;-53
2022/01/23 10:21:38;;;;;;;9.13;5.23;;;;;;;;;;4431842;32;20360;-53
2022/01/23 10:24:05;;;;;;;11.50;6.20;;;;;;;;;;4432002;32;20299;-53
2022/01/23 10:26:40;;;;;;;12.17;6.90;;;;;;;;;;4432233;32;20201;-53
2022/01/23 10:29:17;;;;;;;11.50;6.83;;;;;;;;;;4432064;32;20299;-54
2022/01/23 10:32:04;;;;;;;15.40;7.47;;;;;;;;;;4432524;32;20812;-53
2022/01/23 10:35:01;;;;;;;9.67;6.17;;;;;;;;;;4418102;32;20320;-53
2022/01/23 10:37:37;;;;;;;9.30;5.27;;;;;;;;;;4432085;32;20244;-54
2022/01/23 10:40:21;;;;;;;8.40;5.20;;;;;;;;;;4432077;32;20369;-54
2022/01/23 10:46:34;;;;;;;14.43;6.97;;;;;;;;;;4436539;32;20274;-56
2022/01/23 10:48:47;;;;;;;14.00;7.57;;;;;;;;;;4371918;32;20241;-54
2022/01/23 10:51:25;;;;;;;12.30;6.77;;;;;;;;;;4371604;32;20579;-56
2022/01/23 10:53:59;;;;;;;9.13;5.73;;;;;;;;;;4409964;32;20362;-57
2022/01/23 10:56:31;;;;;;;11.67;7.20;;;;;;;;;;4450640;32;20381;-58
2022/01/23 10:59:04;;;;;;;18.97;9.83;;;;;;;;;;4450235;32;20533;-58
2022/01/23 11:01:30;;;;;;;10.10;6.90;;;;;;;;;;4450197;32;20616;-53
2022/01/23 11:04:24;;;;;;;10.97;7.77;;;;;;;;;;4449833;32;20279;-53
2022/01/23 11:06:57;;;;;;;9.73;6.60;;;;;;;;;;4430414;32;20693;-52
2022/01/23 11:09:37;;;;;;;15.00;7.37;;;;;;;;;;4434818;32;20229;-53
2022/01/23 11:12:22;;;;;;;18.43;10.40;;;;;;;;;;4420653;32;20311;-53
2022/01/23 11:18:01;;;;;;;16.43;9.30;;;;;;;;;;4423509;32;20356;-55
2022/01/23 11:20:37;;;;;;;20.57;7.53;;;;;;;;;;4435721;32;20262;-54
2022/01/23 11:23:02;;;;;;;35.20;15.33;;;;;;;;;;4449761;32;20365;-53
2022/01/23 11:25:28;;;;;;;39.13;16.77;;;;;;;;;;4449658;32;20228;-53
2022/01/23 11:28:02;;;;;;;58.03;22.80;;;;;;;;;;4449844;32;20642;-53
2022/01/23 11:30:54;;;;;;;34.00;15.57;;;;;;;;;;4449950;32;20339;-53
2022/01/23 11:33:20;;;;;;;46.43;18.97;;;;;;;;;;4446058;32;20224;-54
2022/01/23 11:35:46;;;;;;;61.87;23.37;;;;;;;;;;4435905;32;20375;-55
2022/01/23 11:38:16;;;;;;;48.20;18.90;;;;;;;;;;4449717;32;20371;-53
2022/01/23 11:54:41;;;;;;;57.03;24.07;;;;;;;;;;4434580;32;20255;-54
2022/01/23 11:57:31;;;;;;;35.53;16.67;;;;;;;;;;4433902;32;20221;-54
2022/01/23 11:59:58;;;;;;;36.57;19.00;;;;;;;;;;4420031;32;20416;-54
2022/01/23 12:02:33;;;;;;;36.20;17.47;;;;;;;;;;4433782;32;20225;-54
2022/01/23 12:05:15;;;;;;;37.33;21.30;;;;;;;;;;4442981;32;20249;-53
2022/01/23 12:07:42;;;;;;;35.13;16.80;;;;;;;;;;4440526;32;20325;-55
2022/01/23 12:10:16;;;;;;;42.97;18.77;;;;;;;;;;4431767;32;20233;-57
2022/01/23 12:12:46;;;;;;;39.27;18.93;;;;;;;;;;4433493;32;20254;-53
2022/01/23 12:18:21;;;;;;;16.03;9.10;;;;;;;;;;4435237;32;20285;-55
2022/01/23 12:20:48;;;;;;;34.07;19.70;;;;;;;;;;4434288;32;20868;-54
2022/01/23 12:23:15;;;;;;;21.80;12.53;;;;;;;;;;4448588;32;20666;-54
2022/01/23 12:25:49;;;;;;;25.63;12.87;;;;;;;;;;4441739;32;20221;-54
2022/01/23 12:28:25;;;;;;;19.00;9.57;;;;;;;;;;4432933;32;20232;-54
2022/01/23 12:31:13;;;;;;;15.37;7.20;;;;;;;;;;4433154;32;20231;-54
2022/01/23 12:33:41;;;;;;;10.07;6.27;;;;;;;;;;4432744;32;20643;-54
2022/01/23 12:36:12;;;;;;;9.30;4.67;;;;;;;;;;4434380;32;20224;-56
2022/01/23 12:38:50;;;;;;;15.77;8.43;;;;;;;;;;4434703;32;20264;-54
2022/01/23 12:41:32;;;;;;;10.23;5.40;;;;;;;;;;4448906;32;20604;-55
2022/01/23 12:44:06;;;;;;;11.03;7.00;;;;;;;;;;4448503;32;20217;-55
2022/01/23 12:46:41;;;;;;;14.10;9.17;;;;;;;;;;4449227;32;20196;-54
2022/01/23 12:49:28;;;;;;;12.00;6.77;;;;;;;;;;4435072;32;20248;-54
2022/01/23 12:52:06;;;;;;;8.60;5.63;;;;;;;;;;4449891;32;20216;-53
2022/01/23 12:54:34;;;;;;;9.47;5.93;;;;;;;;;;4449507;32;20287;-54
2022/01/23 12:57:10;;;;;;;12.40;7.70;;;;;;;;;;4423415;32;20248;-54
2022/01/23 12:59:37;;;;;;;10.73;7.17;;;;;;;;;;4449590;32;20283;-54
2022/01/23 13:02:09;;;;;;;9.73;6.93;;;;;;;;;;4434956;32;20310;-54
2022/01/23 13:04:41;;;;;;;18.77;8.20;;;;;;;;;;4447179;32;20363;-54
2022/01/23 13:07:18;;;;;;;15.23;7.33;;;;;;;;;;4443020;32;20204;-55
2022/01/23 13:09:52;;;;;;;13.20;8.17;;;;;;;;;;4418280;32;20264;-55
2022/01/23 13:31:38;;;;;;;11.70;6.70;;;;;;;;;;4433097;32;20468;-55
2022/01/23 13:34:19;;;;;;;9.47;6.53;;;;;;;;;;4446612;32;20317;-53
2022/01/23 13:37:03;;;;;;;15.77;8.47;;;;;;;;;;4447245;32;20283;-54
2022/01/23 13:39:43;;;;;;;13.60;8.13;;;;;;;;;;4433674;32;20224;-54
2022/01/23 13:52:39;;;;;;;10.93;6.20;;;;;;;;;;4446621;32;20678;-54
2022/01/23 14:02:29;;;;;;;15.80;6.37;;;;;;;;;;4431462;32;20530;-55
2022/01/23 14:05:17;;;;;;;8.50;5.93;;;;;;;;;;4430854;32;20205;-55
2022/01/23 14:07:52;;;;;;;5.63;4.53;;;;;;;;;;4430186;32;20312;-55
2022/01/23 14:10:36;;;;;;;10.07;5.20;;;;;;;;;;4415592;32;20346;-54
2022/01/23 14:13:14;;;;;;;14.03;6.00;;;;;;;;;;4443609;32;20668;-54
2022/01/23 14:15:45;;;;;;;10.87;6.43;;;;;;;;;;4437945;32;20329;-54
2022/01/23 14:18:13;;;;;;;11.20;5.83;;;;;;;;;;4431748;32;20667;-54
2022/01/23 14:20:44;;;;;;;7.87;5.73;;;;;;;;;;4431588;32;20279;-54
2022/01/23 14:23:20;;;;;;;7.23;4.77;;;;;;;;;;4448339;32;20212;-53
2022/01/23 14:25:51;;;;;;;6.67;4.73;;;;;;;;;;4453211;27;20362;-84
2022/01/23 14:28:24;;;;;;;6.57;4.80;;;;;;;;;;4460015;32;20220;-82
2022/01/23 14:30:58;;;;;;;9.00;5.77;;;;;;;;;;4453851;32;20232;-85
2022/01/23 14:33:32;;;;;;;7.93;5.67;;;;;;;;;;4449635;32;20274;-86
2022/01/23 14:35:58;;;;;;;10.97;5.63;;;;;;;;;;4465166;32;20234;-83
2022/01/23 14:38:27;;;;;;;10.83;5.67;;;;;;;;;;4465509;32;20195;-87
2022/01/23 14:41:01;;;;;;;7.27;4.37;;;;;;;;;;4475142;32;20280;-85
2022/01/23 14:43:32;;;;;;;10.73;7.00;;;;;;;;;;4471819;32;20184;-84
2022/01/23 14:45:58;;;;;;;6.73;5.23;;;;;;;;;;4464356;32;20239;-85
2022/01/23 14:48:24;;;;;;;14.97;8.27;;;;;;;;;;4475499;32;20324;-80
2022/01/23 14:50:53;;;;;;;11.13;6.10;;;;;;;;;;4454690;32;20295;-78
2022/01/23 14:53:22;;;;;;;28.57;7.60;;;;;;;;;;4462480;32;20232;-83
2022/01/23 14:55:50;;;;;;;23.43;10.73;;;;;;;;;;4438345;32;20701;-83
2022/01/23 14:58:21;;;;;;;24.43;12.17;;;;;;;;;;4447158;32;20228;-82
2022/01/23 15:00:49;;;;;;;14.93;8.10;;;;;;;;;;4446576;32;20860;-82
2022/01/23 15:03:15;;;;;;;9.93;6.07;;;;;;;;;;4457676;32;20204;-86
2022/01/23 15:05:40;;;;;;;11.73;7.63;;;;;;;;;;4447975;32;20325;-85
2022/01/23 15:08:08;;;;;;;13.50;7.00;;;;;;;;;;4448369;32;20529;-86
2022/01/23 15:10:36;;;;;;;11.57;7.63;;;;;;;;;;4447200;32;20271;-82
2022/01/23 15:13:01;;;;;;;9.93;5.77;;;;;;;;;;4447569;32;20251;-84
2022/01/23 15:15:27;;;;;;;12.30;7.43;;;;;;;;;;4447924;32;20236;-87
2022/01/23 15:17:53;;;;;;;13.77;6.70;;;;;;;;;;4445605;32;20240;-87
2022/01/23 15:20:18;;;;;;;10.03;5.27;;;;;;;;;;4441747;32;20731;-89
2022/01/23 15:22:45;;;;;;;11.03;6.23;;;;;;;;;;4432314;32;20217;-83
2022/01/23 15:25:12;;;;;;;10.03;7.23;;;;;;;;;;4432418;32;20310;-84
2022/01/23 15:27:37;;;;;;;14.83;6.83;;;;;;;;;;4432108;32;20197;-84
2022/01/23 15:30:09;;;;;;;9.93;5.77;;;;;;;;;;4446888;32;20549;-81
2022/01/23 15:32:34;;;;;;;11.20;7.77;;;;;;;;;;4452119;32;20252;-85
2022/01/23 15:35:00;;;;;;;10.43;5.97;;;;;;;;;;4450797;32;20332;-84
2022/01/23 15:37:26;;;;;;;9.17;5.40;;;;;;;;;;4449890;32;20224;-90
2022/01/23 15:39:51;;;;;;;12.80;7.27;;;;;;;;;;4450061;32;20211;-88
2022/01/23 15:42:17;;;;;;;5.97;4.97;;;;;;;;;;4450556;32;20221;-91
2022/01/23 15:44:43;;;;;;;16.63;8.03;;;;;;;;;;4450511;32;20192;-83
2022/01/23 15:47:08;;;;;;;7.97;6.50;;;;;;;;;;4453211;32;20514;-86
2022/01/23 15:49:34;;;;;;;20.00;10.13;;;;;;;;;;4451472;32;20591;-84
2022/01/23 15:51:59;;;;;;;24.67;11.83;;;;;;;;;;4451742;32;20732;-86
2022/01/23 15:54:26;;;;;;;32.53;12.60;;;;;;;;;;4451173;32;20272;-81
2022/01/23 15:56:54;;;;;;;11.93;7.83;;;;;;;;;;4450355;32;20229;-84
2022/01/23 15:59:21;;;;;;;8.83;6.00;;;;;;;;;;4452931;32;20201;-85
2022/01/23 16:01:49;;;;;;;15.77;8.47;;;;;;;;;;4451217;32;20287;-85
2022/01/23 16:04:17;;;;;;;21.10;9.77;;;;;;;;;;4448056;32;20230;-83
2022/01/23 16:06:43;;;;;;;18.93;10.60;;;;;;;;;;4450899;32;20603;-81
2022/01/23 16:09:08;;;;;;;17.73;9.63;;;;;;;;;;4452397;32;20250;-83
2022/01/23 16:11:34;;;;;;;14.23;9.40;;;;;;;;;;4451398;32;20278;-82
2022/01/23 16:14:03;;;;;;;17.93;10.00;;;;;;;;;;4451137;32;20292;-79
2022/01/23 16:16:29;;;;;;;20.03;11.50;;;;;;;;;;4451861;32;20228;-84
2022/01/23 16:18:56;;;;;;;16.57;12.20;;;;;;;;;;4451327;32;20201;-89
2022/01/23 16:21:23;;;;;;;11.13;6.47;;;;;;;;;;4451798;32;20660;-83
2022/01/23 16:23:48;;;;;;;8.67;5.07;;;;;;;;;;4449673;32;20235;-80
2022/01/23 16:26:14;;;;;;;12.33;7.17;;;;;;;;;;4449541;32;20243;-90
2022/01/23 16:28:39;;;;;;;15.67;9.87;;;;;;;;;;4450044;32;20405;-87
2022/01/23 16:31:07;;;;;;;13.00;7.50;;;;;;;;;;4450463;32;20228;-86
2022/01/23 16:33:32;;;;;;;16.23;8.57;;;;;;;;;;4450435;32;20264;-83
2022/01/23 16:35:58;;;;;;;11.03;6.43;;;;;;;;;;4436353;32;20268;-83
2022/01/23 16:38:23;;;;;;;10.90;6.70;;;;;;;;;;4451390;32;20197;-85
2022/01/23 16:40:54;;;;;;;10.63;6.13;;;;;;;;;;4449668;32;20220;-82
2022/01/23 16:43:22;;;;;;;8.30;5.27;;;;;;;;;;4450899;32;20328;-79
2022/01/23 16:45:50;;;;;;;15.50;7.00;;;;;;;;;;4450684;32;20216;-82
2022/01/23 16:48:15;;;;;;;10.93;6.67;;;;;;;;;;4450719;32;20213;-83
2022/01/23 16:50:41;;;;;;;19.17;10.57;;;;;;;;;;4450470;32;20212;-83
2022/01/23 16:53:07;;;;;;;8.60;5.63;;;;;;;;;;4450861;32;20324;-78
2022/01/23 16:55:32;;;;;;;11.50;8.03;;;;;;;;;;4450286;32;20227;-81
2022/01/23 16:57:58;;;;;;;11.87;8.13;;;;;;;;;;4450865;32;20223;-83
2022/01/23 17:00:23;;;;;;;14.23;8.00;;;;;;;;;;4441418;32;20305;-83
2022/01/23 17:02:49;;;;;;;18.97;8.60;;;;;;;;;;4437579;32;20247;-82
2022/01/23 17:05:14;;;;;;;12.10;7.90;;;;;;;;;;4450659;32;20235;-87
2022/01/23 17:07:40;;;;;;;11.87;6.33;;;;;;;;;;4450252;32;20268;-87
2022/01/23 17:10:07;;;;;;;20.97;10.33;;;;;;;;;;4450257;32;20234;-85
2022/01/23 17:12:33;;;;;;;14.17;7.60;;;;;;;;;;4436793;32;20236;-80
2022/01/23 17:14:58;;;;;;;21.03;7.37;;;;;;;;;;4450752;32;20532;-80
2022/01/23 17:17:25;;;;;;;27.03;10.90;;;;;;;;;;4436071;32;20308;-81
2022/01/23 17:19:50;;;;;;;11.87;7.63;;;;;;;;;;4449838;32;20225;-87
2022/01/23 17:22:16;;;;;;;25.37;11.43;;;;;;;;;;4450399;32;20224;-82
2022/01/23 17:24:41;;;;;;;29.73;11.33;;;;;;;;;;4450507;32;20200;-85
2022/01/23 17:27:07;;;;;;;22.73;12.43;;;;;;;;;;4450269;32;20256;-85
2022/01/23 17:29:33;;;;;;;17.67;9.77;;;;;;;;;;4436287;32;20240;-83
2022/01/23 17:31:58;;;;;;;35.23;15.50;;;;;;;;;;4450108;32;20653;-84
2022/01/23 17:34:24;;;;;;;29.50;14.43;;;;;;;;;;4450756;32;20279;-81
2022/01/23 17:36:49;;;;;;;46.17;17.43;;;;;;;;;;4450041;32;20349;-92
2022/01/23 17:39:15;;;;;;;16.20;9.97;;;;;;;;;;4436306;32;20303;-84
2022/01/23 17:41:41;;;;;;;25.80;12.13;;;;;;;;;;4450688;32;20228;-87
2022/01/23 17:44:07;;;;;;;38.60;17.83;;;;;;;;;;4451169;32;20191;-84
2022/01/23 17:46:36;;;;;;;59.07;16.67;;;;;;;;;;4447631;32;20271;-84
2022/01/23 17:51:28;;;;;;;50.47;21.67;;;;;;;;;;4436037;32;20243;-90
2022/01/23 17:53:55;;;;;;;34.93;17.47;;;;;;;;;;4436023;32;20382;-86
2022/01/23 17:56:20;;;;;;;71.50;27.17;;;;;;;;;;4450445;32;20295;-87
2022/01/23 17:58:47;;;;;;;49.93;23.97;;;;;;;;;;4454177;32;20192;-94
2022/01/23 18:01:14;;;;;;;27.23;15.03;;;;;;;;;;4442184;32;20251;-84